sensor_id;sensor_type;location;lat;lon;timestamp;temperature;humidity
56869;DHT22;42754;0.000;0.000;2022-09-09T00:10:38;15.80;99.90
56869;DHT22;42754;0.000;0.000;2022-09-09T00:19:06;15.80;99.90
56869;DHT22;42754;0.000;0.000;2022-09-09T00:21:38;15.70;99.90
56869;DHT22;42754;0.000;0.000;2022-09-09T00:27:20;15.80;99.90
56869;DHT22;42754;0.000;0.000;2022-09-09T00:30:21;15.80;99.90
56869;DHT22;42754;0.000;0.000;2022-09-09T00:33:13;15.70;99.90
56869;DHT22;42754;0.000;0.000;2022-09-09T00:35:58;15.70;99.90
56869;DHT22;42754;0.000;0.000;2022-09-09T00:38:52;15.70;99.90
56869;DHT22;42754;0.000;0.000;2022-09-09T00:44:00;15.60;99.90
56869;DHT22;42754;0.000;0.000;2022-09-09T00:49:42;15.60;99.90
56869;DHT22;42754;0.000;0.000;2022-09-09T00:52:16;15.60;99.90
56869;DHT22;42754;0.000;0.000;2022-09-09T00:57:28;15.50;99.90
56869;DHT22;42754;0.000;0.000;2022-09-09T01:00:35;15.60;99.90
56869;DHT22;42754;0.000;0.000;2022-09-09T01:03:38;15.50;99.90
56869;DHT22;42754;0.000;0.000;2022-09-09T01:17:21;15.50;99.90
56869;DHT22;42754;0.000;0.000;2022-09-09T01:26:08;15.40;99.90
56869;DHT22;42754;0.000;0.000;2022-09-09T01:28:36;15.40;99.90
56869;DHT22;42754;0.000;0.000;2022-09-09T01:31:05;15.40;99.90
56869;DHT22;42754;0.000;0.000;2022-09-09T01:33:32;15.40;99.90
56869;DHT22;42754;0.000;0.000;2022-09-09T01:38:39;15.30;99.90
56869;DHT22;42754;0.000;0.000;2022-09-09T01:41:05;15.30;99.90
56869;DHT22;42754;0.000;0.000;2022-09-09T01:43:40;15.20;99.90
56869;DHT22;42754;0.000;0.000;2022-09-09T01:46:06;15.20;99.90
56869;DHT22;42754;0.000;0.000;2022-09-09T01:48:33;15.10;99.90
56869;DHT22;42754;0.000;0.000;2022-09-09T01:50:59;15.10;99.90
56869;DHT22;42754;0.000;0.000;2022-09-09T01:53:26;15.20;99.90
56869;DHT22;42754;0.000;0.000;2022-09-09T02:03:52;15.00;99.90
56869;DHT22;42754;0.000;0.000;2022-09-09T02:08:56;15.00;99.90
56869;DHT22;42754;0.000;0.000;2022-09-09T02:11:24;15.00;99.90
56869;DHT22;42754;0.000;0.000;2022-09-09T02:14:01;14.90;99.90
56869;DHT22;42754;0.000;0.000;2022-09-09T02:19:10;14.90;99.90
56869;DHT22;42754;0.000;0.000;2022-09-09T02:21:39;14.90;99.90
56869;DHT22;42754;0.000;0.000;2022-09-09T02:24:34;14.90;99.90
56869;DHT22;42754;0.000;0.000;2022-09-09T02:27:03;14.90;99.90
56869;DHT22;42754;0.000;0.000;2022-09-09T02:29:42;14.90;99.90
56869;DHT22;42754;0.000;0.000;2022-09-09T02:32:16;14.90;99.90
56869;DHT22;42754;0.000;0.000;2022-09-09T02:35:14;14.90;99.90
56869;DHT22;42754;0.000;0.000;2022-09-09T02:37:42;14.80;99.90
56869;DHT22;42754;0.000;0.000;2022-09-09T02:40:09;14.80;99.90
56869;DHT22;42754;0.000;0.000;2022-09-09T02:42:40;14.80;99.90
56869;DHT22;42754;0.000;0.000;2022-09-09T02:57:03;14.60;99.90
56869;DHT22;42754;0.000;0.000;2022-09-09T02:59:30;14.60;99.90
56869;DHT22;42754;0.000;0.000;2022-09-09T03:01:58;14.60;99.90
56869;DHT22;42754;0.000;0.000;2022-09-09T03:04:24;14.50;99.90
56869;DHT22;42754;0.000;0.000;2022-09-09T03:06:50;14.60;99.90
56869;DHT22;42754;0.000;0.000;2022-09-09T03:09:16;14.50;99.90
56869;DHT22;42754;0.000;0.000;2022-09-09T03:11:42;14.40;99.90
56869;DHT22;42754;0.000;0.000;2022-09-09T03:14:08;14.40;99.90
56869;DHT22;42754;0.000;0.000;2022-09-09T03:16:36;14.40;99.90
56869;DHT22;42754;0.000;0.000;2022-09-09T03:19:02;14.40;99.90
56869;DHT22;42754;0.000;0.000;2022-09-09T03:21:28;14.30;99.90
56869;DHT22;42754;0.000;0.000;2022-09-09T03:23:56;14.40;99.90
56869;DHT22;42754;0.000;0.000;2022-09-09T03:26:22;14.40;99.90
56869;DHT22;42754;0.000;0.000;2022-09-09T03:28:48;14.30;99.90
56869;DHT22;42754;0.000;0.000;2022-09-09T03:31:17;14.30;99.90
56869;DHT22;42754;0.000;0.000;2022-09-09T03:33:54;14.30;99.90
56869;DHT22;42754;0.000;0.000;2022-09-09T03:36:20;14.30;99.90
56869;DHT22;42754;0.000;0.000;2022-09-09T03:38:58;14.30;99.90
56869;DHT22;42754;0.000;0.000;2022-09-09T03:41:25;14.30;99.90
56869;DHT22;42754;0.000;0.000;2022-09-09T03:43:51;14.30;99.90
56869;DHT22;42754;0.000;0.000;2022-09-09T03:46:25;14.30;99.90
56869;DHT22;42754;0.000;0.000;2022-09-09T03:48:50;14.30;99.90
56869;DHT22;42754;0.000;0.000;2022-09-09T03:51:28;14.30;99.90
56869;DHT22;42754;0.000;0.000;2022-09-09T03:53:54;14.30;99.90
56869;DHT22;42754;0.000;0.000;2022-09-09T03:56:24;14.30;99.90
56869;DHT22;42754;0.000;0.000;2022-09-09T03:58:50;14.30;99.90
56869;DHT22;42754;0.000;0.000;2022-09-09T04:01:17;14.30;99.90
56869;DHT22;42754;0.000;0.000;2022-09-09T04:03:43;14.30;99.90
56869;DHT22;42754;0.000;0.000;2022-09-09T04:06:13;14.40;99.90
56869;DHT22;42754;0.000;0.000;2022-09-09T04:08:39;14.30;99.90
56869;DHT22;42754;0.000;0.000;2022-09-09T04:11:05;14.40;99.90
56869;DHT22;42754;0.000;0.000;2022-09-09T04:13:33;14.40;99.90
56869;DHT22;42754;0.000;0.000;2022-09-09T04:16:00;14.40;99.90
56869;DHT22;42754;0.000;0.000;2022-09-09T04:18:26;14.40;99.90
56869;DHT22;42754;0.000;0.000;2022-09-09T04:20:53;14.40;99.90
56869;DHT22;42754;0.000;0.000;2022-09-09T04:23:21;14.40;99.90
56869;DHT22;42754;0.000;0.000;2022-09-09T04:25:50;14.40;99.90
56869;DHT22;42754;0.000;0.000;2022-09-09T04:28:16;14.40;99.90
56869;DHT22;42754;0.000;0.000;2022-09-09T04:30:43;14.40;99.90
56869;DHT22;42754;0.000;0.000;2022-09-09T04:33:09;14.50;99.90
56869;DHT22;42754;0.000;0.000;2022-09-09T04:35:48;14.40;99.90
56869;DHT22;42754;0.000;0.000;2022-09-09T04:38:15;14.40;99.90
56869;DHT22;42754;0.000;0.000;2022-09-09T04:40:47;14.50;99.90
56869;DHT22;42754;0.000;0.000;2022-09-09T04:43:17;14.40;99.90
56869;DHT22;42754;0.000;0.000;2022-09-09T04:45:47;14.40;99.90
56869;DHT22;42754;0.000;0.000;2022-09-09T04:48:18;14.50;99.90
56869;DHT22;42754;0.000;0.000;2022-09-09T04:50:44;14.50;99.90
56869;DHT22;42754;0.000;0.000;2022-09-09T04:53:10;14.50;99.90
56869;DHT22;42754;0.000;0.000;2022-09-09T04:55:36;14.50;99.90
56869;DHT22;42754;0.000;0.000;2022-09-09T04:58:04;14.50;99.90
56869;DHT22;42754;0.000;0.000;2022-09-09T05:00:31;14.50;99.90
56869;DHT22;42754;0.000;0.000;2022-09-09T05:06:20;14.60;99.90
56869;DHT22;42754;0.000;0.000;2022-09-09T05:08:47;14.60;99.90
56869;DHT22;42754;0.000;0.000;2022-09-09T05:11:25;14.60;99.90
56869;DHT22;42754;0.000;0.000;2022-09-09T05:13:53;14.60;99.90
56869;DHT22;42754;0.000;0.000;2022-09-09T05:16:30;14.60;99.90
56869;DHT22;42754;0.000;0.000;2022-09-09T05:18:56;14.60;99.90
56869;DHT22;42754;0.000;0.000;2022-09-09T05:21:24;14.60;99.90
56869;DHT22;42754;0.000;0.000;2022-09-09T05:23:52;14.60;99.90
56869;DHT22;42754;0.000;0.000;2022-09-09T05:26:20;14.60;99.90
56869;DHT22;42754;0.000;0.000;2022-09-09T05:28:46;14.60;99.90
56869;DHT22;42754;0.000;0.000;2022-09-09T05:31:14;14.60;99.90
56869;DHT22;42754;0.000;0.000;2022-09-09T05:33:41;14.60;99.90
56869;DHT22;42754;0.000;0.000;2022-09-09T05:36:11;14.60;99.90
56869;DHT22;42754;0.000;0.000;2022-09-09T05:38:40;14.60;99.90
56869;DHT22;42754;0.000;0.000;2022-09-09T05:41:07;14.70;99.90
56869;DHT22;42754;0.000;0.000;2022-09-09T05:43:33;14.70;99.90
56869;DHT22;42754;0.000;0.000;2022-09-09T05:46:12;14.70;99.90
56869;DHT22;42754;0.000;0.000;2022-09-09T05:48:40;14.70;99.90
56869;DHT22;42754;0.000;0.000;2022-09-09T05:51:08;15.10;99.90
56869;DHT22;42754;0.000;0.000;2022-09-09T05:53:35;15.40;99.90
56869;DHT22;42754;0.000;0.000;2022-09-09T05:56:06;15.60;99.90
56869;DHT22;42754;0.000;0.000;2022-09-09T05:58:32;15.40;99.90
56869;DHT22;42754;0.000;0.000;2022-09-09T06:01:06;15.20;99.90
56869;DHT22;42754;0.000;0.000;2022-09-09T06:03:37;15.20;99.90
56869;DHT22;42754;0.000;0.000;2022-09-09T06:06:06;15.20;99.90
56869;DHT22;42754;0.000;0.000;2022-09-09T06:08:34;15.20;99.90
56869;DHT22;42754;0.000;0.000;2022-09-09T06:11:17;15.40;99.90
56869;DHT22;42754;0.000;0.000;2022-09-09T06:13:43;15.90;99.90
56869;DHT22;42754;0.000;0.000;2022-09-09T06:16:11;16.20;99.90
56869;DHT22;42754;0.000;0.000;2022-09-09T06:18:41;16.30;99.90
56869;DHT22;42754;0.000;0.000;2022-09-09T06:21:23;16.40;99.90
56869;DHT22;42754;0.000;0.000;2022-09-09T06:23:49;16.60;99.90
56869;DHT22;42754;0.000;0.000;2022-09-09T06:26:31;16.70;99.90
56869;DHT22;42754;0.000;0.000;2022-09-09T06:28:58;16.90;99.90
56869;DHT22;42754;0.000;0.000;2022-09-09T06:31:28;16.70;99.90
56869;DHT22;42754;0.000;0.000;2022-09-09T06:33:58;16.60;99.90
56869;DHT22;42754;0.000;0.000;2022-09-09T06:36:26;16.60;99.90
56869;DHT22;42754;0.000;0.000;2022-09-09T06:38:52;16.60;99.90
56869;DHT22;42754;0.000;0.000;2022-09-09T06:41:22;16.40;99.90
56869;DHT22;42754;0.000;0.000;2022-09-09T06:43:48;16.40;99.90
56869;DHT22;42754;0.000;0.000;2022-09-09T06:46:20;16.30;99.90
56869;DHT22;42754;0.000;0.000;2022-09-09T06:48:47;16.20;99.90
56869;DHT22;42754;0.000;0.000;2022-09-09T06:51:17;16.20;99.90
56869;DHT22;42754;0.000;0.000;2022-09-09T06:53:45;16.30;99.90
56869;DHT22;42754;0.000;0.000;2022-09-09T06:58:39;16.70;99.90
56869;DHT22;42754;0.000;0.000;2022-09-09T07:01:12;16.80;99.90
56869;DHT22;42754;0.000;0.000;2022-09-09T07:03:39;16.90;99.90
56869;DHT22;42754;0.000;0.000;2022-09-09T07:06:06;16.70;99.90
56869;DHT22;42754;0.000;0.000;2022-09-09T07:08:33;16.80;99.90
56869;DHT22;42754;0.000;0.000;2022-09-09T07:11:07;16.70;99.90
56869;DHT22;42754;0.000;0.000;2022-09-09T07:13:33;16.70;99.90
56869;DHT22;42754;0.000;0.000;2022-09-09T07:16:07;16.80;99.90
56869;DHT22;42754;0.000;0.000;2022-09-09T07:18:34;16.70;99.90
56869;DHT22;42754;0.000;0.000;2022-09-09T07:21:00;16.80;99.90
56869;DHT22;42754;0.000;0.000;2022-09-09T07:23:28;16.90;99.90
56869;DHT22;42754;0.000;0.000;2022-09-09T07:25:53;16.80;99.90
56869;DHT22;42754;0.000;0.000;2022-09-09T07:28:22;16.70;99.90
56869;DHT22;42754;0.000;0.000;2022-09-09T07:30:59;16.60;99.90
56869;DHT22;42754;0.000;0.000;2022-09-09T07:33:26;16.60;99.90
56869;DHT22;42754;0.000;0.000;2022-09-09T07:35:52;16.70;99.90
56869;DHT22;42754;0.000;0.000;2022-09-09T07:38:19;16.80;99.90
56869;DHT22;42754;0.000;0.000;2022-09-09T07:40:45;16.90;99.90
56869;DHT22;42754;0.000;0.000;2022-09-09T07:43:11;17.00;99.90
56869;DHT22;42754;0.000;0.000;2022-09-09T07:45:37;17.10;99.90
56869;DHT22;42754;0.000;0.000;2022-09-09T07:48:03;17.10;99.90
56869;DHT22;42754;0.000;0.000;2022-09-09T07:50:29;17.10;99.90
56869;DHT22;42754;0.000;0.000;2022-09-09T07:52:55;17.20;99.90
56869;DHT22;42754;0.000;0.000;2022-09-09T07:55:21;17.20;99.90
56869;DHT22;42754;0.000;0.000;2022-09-09T07:57:51;17.10;99.90
56869;DHT22;42754;0.000;0.000;2022-09-09T08:00:17;17.00;99.90
56869;DHT22;42754;0.000;0.000;2022-09-09T08:02:44;17.00;99.90
56869;DHT22;42754;0.000;0.000;2022-09-09T08:05:09;17.20;99.90
56869;DHT22;42754;0.000;0.000;2022-09-09T08:07:35;17.40;99.90
56869;DHT22;42754;0.000;0.000;2022-09-09T08:10:02;17.60;99.90
56869;DHT22;42754;0.000;0.000;2022-09-09T08:12:28;17.50;99.90
56869;DHT22;42754;0.000;0.000;2022-09-09T08:14:53;17.30;99.90
56869;DHT22;42754;0.000;0.000;2022-09-09T08:17:19;17.40;99.90
56869;DHT22;42754;0.000;0.000;2022-09-09T08:19:45;17.50;99.90
56869;DHT22;42754;0.000;0.000;2022-09-09T08:22:10;17.60;99.90
56869;DHT22;42754;0.000;0.000;2022-09-09T08:24:36;17.70;99.90
56869;DHT22;42754;0.000;0.000;2022-09-09T08:27:02;17.90;99.90
56869;DHT22;42754;0.000;0.000;2022-09-09T08:29:27;18.20;99.90
56869;DHT22;42754;0.000;0.000;2022-09-09T08:31:55;18.50;99.90
56869;DHT22;42754;0.000;0.000;2022-09-09T08:34:22;18.40;99.90
56869;DHT22;42754;0.000;0.000;2022-09-09T08:36:57;18.00;99.90
56869;DHT22;42754;0.000;0.000;2022-09-09T08:39:23;17.70;99.90
56869;DHT22;42754;0.000;0.000;2022-09-09T08:52:39;17.80;99.90
56869;DHT22;42754;0.000;0.000;2022-09-09T08:58:18;17.70;99.90
56869;DHT22;42754;0.000;0.000;2022-09-09T09:00:54;17.70;99.90
56869;DHT22;42754;0.000;0.000;2022-09-09T09:03:39;17.60;99.90
56869;DHT22;42754;0.000;0.000;2022-09-09T09:09:18;17.70;99.90
56869;DHT22;42754;0.000;0.000;2022-09-09T09:11:53;17.60;99.90
56869;DHT22;42754;0.000;0.000;2022-09-09T09:14:30;17.50;99.90
56869;DHT22;42754;0.000;0.000;2022-09-09T09:19:50;17.50;99.90
56869;DHT22;42754;0.000;0.000;2022-09-09T09:25:41;17.60;99.90
56869;DHT22;42754;0.000;0.000;2022-09-09T09:28:35;17.70;99.90
56869;DHT22;42754;0.000;0.000;2022-09-09T09:31:11;17.60;99.90
56869;DHT22;42754;0.000;0.000;2022-09-09T09:33:54;17.60;99.90
56869;DHT22;42754;0.000;0.000;2022-09-09T09:36:53;17.80;99.90
56869;DHT22;42754;0.000;0.000;2022-09-09T09:39:30;18.00;99.90
56869;DHT22;42754;0.000;0.000;2022-09-09T09:42:21;18.00;99.90
56869;DHT22;42754;0.000;0.000;2022-09-09T09:48:05;18.70;99.90
56869;DHT22;42754;0.000;0.000;2022-09-09T09:50:57;18.60;99.90
56869;DHT22;42754;0.000;0.000;2022-09-09T09:53:34;18.20;99.90
56869;DHT22;42754;0.000;0.000;2022-09-09T09:56:13;18.10;99.90
56869;DHT22;42754;0.000;0.000;2022-09-09T09:58:50;18.10;99.90
56869;DHT22;42754;0.000;0.000;2022-09-09T10:01:48;18.30;99.90
56869;DHT22;42754;0.000;0.000;2022-09-09T10:04:29;18.60;99.90
56869;DHT22;42754;0.000;0.000;2022-09-09T10:07:18;18.50;99.90
56869;DHT22;42754;0.000;0.000;2022-09-09T10:10:08;18.50;99.90
56869;DHT22;42754;0.000;0.000;2022-09-09T10:32:17;18.50;99.90
56869;DHT22;42754;0.000;0.000;2022-09-09T10:35:02;18.40;99.90
56869;DHT22;42754;0.000;0.000;2022-09-09T10:37:36;18.40;99.90
56869;DHT22;42754;0.000;0.000;2022-09-09T10:42:53;18.20;99.90
56869;DHT22;42754;0.000;0.000;2022-09-09T10:51:02;18.30;99.90
56869;DHT22;42754;0.000;0.000;2022-09-09T10:56:15;18.30;99.90
56869;DHT22;42754;0.000;0.000;2022-09-09T10:58:47;18.30;99.90
56869;DHT22;42754;0.000;0.000;2022-09-09T11:01:31;18.20;99.90
56869;DHT22;42754;0.000;0.000;2022-09-09T11:07:07;18.10;99.90
56869;DHT22;42754;0.000;0.000;2022-09-09T11:09:38;18.00;99.90
56869;DHT22;42754;0.000;0.000;2022-09-09T11:12:05;18.10;99.90
56869;DHT22;42754;0.000;0.000;2022-09-09T11:14:59;18.30;99.90
56869;DHT22;42754;0.000;0.000;2022-09-09T11:17:33;18.50;99.90
56869;DHT22;42754;0.000;0.000;2022-09-09T11:20:01;18.70;99.90
56869;DHT22;42754;0.000;0.000;2022-09-09T11:25:39;18.70;99.90
56869;DHT22;42754;0.000;0.000;2022-09-09T11:28:23;18.60;99.90
56869;DHT22;42754;0.000;0.000;2022-09-09T11:31:06;18.50;99.90
56869;DHT22;42754;0.000;0.000;2022-09-09T11:36:12;18.40;99.90
56869;DHT22;42754;0.000;0.000;2022-09-09T11:41:08;18.30;99.90
56869;DHT22;42754;0.000;0.000;2022-09-09T11:46:08;18.40;99.90
56869;DHT22;42754;0.000;0.000;2022-09-09T11:48:40;18.50;99.90
56869;DHT22;42754;0.000;0.000;2022-09-09T11:51:27;18.50;99.90
56869;DHT22;42754;0.000;0.000;2022-09-09T11:53:58;18.50;99.90
56869;DHT22;42754;0.000;0.000;2022-09-09T11:59:05;18.30;99.90
56869;DHT22;42754;0.000;0.000;2022-09-09T12:01:37;18.10;99.90
56869;DHT22;42754;0.000;0.000;2022-09-09T12:09:43;18.00;99.90
56869;DHT22;42754;0.000;0.000;2022-09-09T12:14:54;18.40;99.90
56869;DHT22;42754;0.000;0.000;2022-09-09T12:17:42;18.30;99.90
56869;DHT22;42754;0.000;0.000;2022-09-09T12:26:03;18.10;99.90
56869;DHT22;42754;0.000;0.000;2022-09-09T12:28:49;18.10;99.90
56869;DHT22;42754;0.000;0.000;2022-09-09T12:40:14;18.50;99.90
56869;DHT22;42754;0.000;0.000;2022-09-09T12:42:43;18.40;99.90
56869;DHT22;42754;0.000;0.000;2022-09-09T12:45:18;18.40;99.90
56869;DHT22;42754;0.000;0.000;2022-09-09T12:48:32;18.50;99.90
56869;DHT22;42754;0.000;0.000;2022-09-09T12:50:51;18.30;99.90
56869;DHT22;42754;0.000;0.000;2022-09-09T12:53:30;18.40;99.90
56869;DHT22;42754;0.000;0.000;2022-09-09T12:56:03;18.60;99.90
56869;DHT22;42754;0.000;0.000;2022-09-09T12:58:31;18.50;99.90
56869;DHT22;42754;0.000;0.000;2022-09-09T13:01:01;18.50;99.90
56869;DHT22;42754;0.000;0.000;2022-09-09T13:03:31;18.60;99.90
56869;DHT22;42754;0.000;0.000;2022-09-09T13:06:12;19.00;99.90
56869;DHT22;42754;0.000;0.000;2022-09-09T13:08:38;19.00;99.90
56869;DHT22;42754;0.000;0.000;2022-09-09T13:11:09;18.90;99.90
56869;DHT22;42754;0.000;0.000;2022-09-09T13:13:38;19.10;99.90
56869;DHT22;42754;0.000;0.000;2022-09-09T13:16:05;19.10;99.90
56869;DHT22;42754;0.000;0.000;2022-09-09T13:18:40;18.90;99.90
56869;DHT22;42754;0.000;0.000;2022-09-09T13:21:06;18.70;99.90
56869;DHT22;42754;0.000;0.000;2022-09-09T13:23:35;18.60;99.90
56869;DHT22;42754;0.000;0.000;2022-09-09T13:26:03;18.50;99.90
56869;DHT22;42754;0.000;0.000;2022-09-09T13:28:33;18.50;99.90
56869;DHT22;42754;0.000;0.000;2022-09-09T13:33:38;18.80;99.90
56869;DHT22;42754;0.000;0.000;2022-09-09T13:36:07;19.10;99.90
56869;DHT22;42754;0.000;0.000;2022-09-09T13:38:54;19.50;99.90
56869;DHT22;42754;0.000;0.000;2022-09-09T13:41:33;19.30;99.90
56869;DHT22;42754;0.000;0.000;2022-09-09T13:44:00;19.20;99.90
56869;DHT22;42754;0.000;0.000;2022-09-09T13:49:01;19.20;99.90
56869;DHT22;42754;0.000;0.000;2022-09-09T13:52:03;19.00;99.90
56869;DHT22;42754;0.000;0.000;2022-09-09T13:54:29;18.80;99.90
56869;DHT22;42754;0.000;0.000;2022-09-09T13:56:56;18.70;99.90
56869;DHT22;42754;0.000;0.000;2022-09-09T13:59:22;18.80;99.90
56869;DHT22;42754;0.000;0.000;2022-09-09T14:01:49;18.90;99.90
56869;DHT22;42754;0.000;0.000;2022-09-09T14:04:18;19.00;99.90
56869;DHT22;42754;0.000;0.000;2022-09-09T14:06:46;19.00;99.90
56869;DHT22;42754;0.000;0.000;2022-09-09T14:09:15;19.10;99.90
56869;DHT22;42754;0.000;0.000;2022-09-09T14:11:41;19.10;99.90
56869;DHT22;42754;0.000;0.000;2022-09-09T14:14:07;18.90;99.90
56869;DHT22;42754;0.000;0.000;2022-09-09T14:16:34;18.80;99.90
56869;DHT22;42754;0.000;0.000;2022-09-09T14:19:00;18.60;99.90
56869;DHT22;42754;0.000;0.000;2022-09-09T14:21:27;18.60;99.90
56869;DHT22;42754;0.000;0.000;2022-09-09T14:23:53;18.60;99.90
56869;DHT22;42754;0.000;0.000;2022-09-09T14:26:20;18.60;99.90
56869;DHT22;42754;0.000;0.000;2022-09-09T14:28:55;18.60;99.90
56869;DHT22;42754;0.000;0.000;2022-09-09T14:31:24;18.60;99.90
56869;DHT22;42754;0.000;0.000;2022-09-09T14:33:50;18.80;99.90
56869;DHT22;42754;0.000;0.000;2022-09-09T14:36:16;18.90;99.90
56869;DHT22;42754;0.000;0.000;2022-09-09T14:38:42;19.10;99.90
56869;DHT22;42754;0.000;0.000;2022-09-09T14:41:13;19.00;99.90
56869;DHT22;42754;0.000;0.000;2022-09-09T14:43:42;19.00;99.90
56869;DHT22;42754;0.000;0.000;2022-09-09T14:46:10;18.90;99.90
56869;DHT22;42754;0.000;0.000;2022-09-09T14:48:36;18.90;99.90
56869;DHT22;42754;0.000;0.000;2022-09-09T14:51:13;18.80;99.90
56869;DHT22;42754;0.000;0.000;2022-09-09T14:53:41;18.60;99.90
56869;DHT22;42754;0.000;0.000;2022-09-09T14:56:07;18.60;99.90
56869;DHT22;42754;0.000;0.000;2022-09-09T14:58:34;18.60;99.90
56869;DHT22;42754;0.000;0.000;2022-09-09T15:01:11;18.80;99.90
56869;DHT22;42754;0.000;0.000;2022-09-09T15:03:38;18.80;99.90
56869;DHT22;42754;0.000;0.000;2022-09-09T15:06:14;18.80;99.90
56869;DHT22;42754;0.000;0.000;2022-09-09T15:08:52;18.70;99.90
56869;DHT22;42754;0.000;0.000;2022-09-09T15:11:20;18.70;99.90
56869;DHT22;42754;0.000;0.000;2022-09-09T15:13:47;18.70;99.90
56869;DHT22;42754;0.000;0.000;2022-09-09T15:16:18;18.70;99.90
56869;DHT22;42754;0.000;0.000;2022-09-09T15:19:12;18.70;99.90
56869;DHT22;42754;0.000;0.000;2022-09-09T15:21:40;18.70;99.90
56869;DHT22;42754;0.000;0.000;2022-09-09T15:24:14;18.90;99.90
56869;DHT22;42754;0.000;0.000;2022-09-09T15:26:41;18.90;99.90
56869;DHT22;42754;0.000;0.000;2022-09-09T15:29:14;18.80;99.90
56869;DHT22;42754;0.000;0.000;2022-09-09T15:31:44;18.80;99.90
56869;DHT22;42754;0.000;0.000;2022-09-09T15:34:31;18.80;99.90
56869;DHT22;42754;0.000;0.000;2022-09-09T15:37:00;18.80;99.90
56869;DHT22;42754;0.000;0.000;2022-09-09T15:39:29;18.80;99.90
56869;DHT22;42754;0.000;0.000;2022-09-09T15:41:55;18.80;99.90
56869;DHT22;42754;0.000;0.000;2022-09-09T15:44:21;18.70;99.90
56869;DHT22;42754;0.000;0.000;2022-09-09T15:46:54;18.70;99.90
56869;DHT22;42754;0.000;0.000;2022-09-09T15:49:31;18.60;99.90
56869;DHT22;42754;0.000;0.000;2022-09-09T15:52:03;18.60;99.90
56869;DHT22;42754;0.000;0.000;2022-09-09T15:54:38;18.50;99.90
56869;DHT22;42754;0.000;0.000;2022-09-09T15:57:14;18.50;99.90
56869;DHT22;42754;0.000;0.000;2022-09-09T15:59:40;18.50;99.90
56869;DHT22;42754;0.000;0.000;2022-09-09T16:02:38;18.50;99.90
56869;DHT22;42754;0.000;0.000;2022-09-09T16:05:06;18.40;99.90
56869;DHT22;42754;0.000;0.000;2022-09-09T16:07:39;18.40;99.90
56869;DHT22;42754;0.000;0.000;2022-09-09T16:10:09;18.40;99.90
56869;DHT22;42754;0.000;0.000;2022-09-09T16:12:39;18.30;99.90
56869;DHT22;42754;0.000;0.000;2022-09-09T16:15:15;18.30;99.90
56869;DHT22;42754;0.000;0.000;2022-09-09T16:17:53;18.30;99.90
56869;DHT22;42754;0.000;0.000;2022-09-09T16:20:19;18.20;99.90
56869;DHT22;42754;0.000;0.000;2022-09-09T16:22:45;18.20;99.90
56869;DHT22;42754;0.000;0.000;2022-09-09T16:25:11;18.20;99.90
56869;DHT22;42754;0.000;0.000;2022-09-09T16:27:46;18.10;99.90
56869;DHT22;42754;0.000;0.000;2022-09-09T16:30:12;18.00;99.90
56869;DHT22;42754;0.000;0.000;2022-09-09T16:32:37;17.80;99.90
56869;DHT22;42754;0.000;0.000;2022-09-09T16:35:04;17.60;99.90
56869;DHT22;42754;0.000;0.000;2022-09-09T16:37:30;17.40;99.90
56869;DHT22;42754;0.000;0.000;2022-09-09T16:39:56;17.40;99.90
56869;DHT22;42754;0.000;0.000;2022-09-09T16:42:22;17.50;99.90
56869;DHT22;42754;0.000;0.000;2022-09-09T16:44:48;17.40;99.90
56869;DHT22;42754;0.000;0.000;2022-09-09T16:47:15;17.40;99.90
56869;DHT22;42754;0.000;0.000;2022-09-09T16:49:41;17.40;99.90
56869;DHT22;42754;0.000;0.000;2022-09-09T16:52:07;17.40;99.90
56869;DHT22;42754;0.000;0.000;2022-09-09T16:54:33;17.40;99.90
56869;DHT22;42754;0.000;0.000;2022-09-09T16:56:59;17.40;99.90
56869;DHT22;42754;0.000;0.000;2022-09-09T16:59:25;17.40;99.90
56869;DHT22;42754;0.000;0.000;2022-09-09T17:01:52;17.40;99.90
56869;DHT22;42754;0.000;0.000;2022-09-09T17:04:22;17.40;99.90
56869;DHT22;42754;0.000;0.000;2022-09-09T17:06:51;17.50;99.90
56869;DHT22;42754;0.000;0.000;2022-09-09T17:09:18;17.40;99.90
56869;DHT22;42754;0.000;0.000;2022-09-09T17:11:44;17.30;99.90
56869;DHT22;42754;0.000;0.000;2022-09-09T17:14:15;17.20;99.90
56869;DHT22;42754;0.000;0.000;2022-09-09T17:16:41;17.20;99.90
56869;DHT22;42754;0.000;0.000;2022-09-09T17:19:07;17.30;99.90
56869;DHT22;42754;0.000;0.000;2022-09-09T17:21:34;17.20;99.90
56869;DHT22;42754;0.000;0.000;2022-09-09T17:24:00;17.20;99.90
56869;DHT22;42754;0.000;0.000;2022-09-09T17:26:28;17.10;99.90
56869;DHT22;42754;0.000;0.000;2022-09-09T17:28:55;17.00;99.90
56869;DHT22;42754;0.000;0.000;2022-09-09T17:31:22;17.20;99.90
56869;DHT22;42754;0.000;0.000;2022-09-09T17:33:49;17.10;99.90
56869;DHT22;42754;0.000;0.000;2022-09-09T17:36:18;17.10;99.90
56869;DHT22;42754;0.000;0.000;2022-09-09T17:38:44;17.10;99.90
56869;DHT22;42754;0.000;0.000;2022-09-09T17:41:14;17.10;99.90
56869;DHT22;42754;0.000;0.000;2022-09-09T17:43:42;17.10;99.90
56869;DHT22;42754;0.000;0.000;2022-09-09T17:46:09;17.10;99.90
56869;DHT22;42754;0.000;0.000;2022-09-09T17:48:35;17.00;99.90
56869;DHT22;42754;0.000;0.000;2022-09-09T17:51:09;16.90;99.90
56869;DHT22;42754;0.000;0.000;2022-09-09T17:53:41;16.90;99.90
56869;DHT22;42754;0.000;0.000;2022-09-09T17:56:09;16.90;99.90
56869;DHT22;42754;0.000;0.000;2022-09-09T17:58:35;16.90;99.90
56869;DHT22;42754;0.000;0.000;2022-09-09T18:01:06;16.90;99.90
56869;DHT22;42754;0.000;0.000;2022-09-09T18:03:36;16.80;99.90
56869;DHT22;42754;0.000;0.000;2022-09-09T18:06:07;16.70;99.90
56869;DHT22;42754;0.000;0.000;2022-09-09T18:08:47;16.70;99.90
56869;DHT22;42754;0.000;0.000;2022-09-09T18:11:15;16.60;99.90
56869;DHT22;42754;0.000;0.000;2022-09-09T18:13:40;16.60;99.90
56869;DHT22;42754;0.000;0.000;2022-09-09T18:16:07;16.60;99.90
56869;DHT22;42754;0.000;0.000;2022-09-09T18:18:33;16.50;99.90
56869;DHT22;42754;0.000;0.000;2022-09-09T18:21:01;16.50;99.90
56869;DHT22;42754;0.000;0.000;2022-09-09T18:23:28;16.50;99.90
56869;DHT22;42754;0.000;0.000;2022-09-09T18:25:54;16.50;99.90
56869;DHT22;42754;0.000;0.000;2022-09-09T18:28:21;16.50;99.90
56869;DHT22;42754;0.000;0.000;2022-09-09T18:30:47;16.50;99.90
56869;DHT22;42754;0.000;0.000;2022-09-09T18:33:13;16.50;99.90
56869;DHT22;42754;0.000;0.000;2022-09-09T18:35:40;16.40;99.90
56869;DHT22;42754;0.000;0.000;2022-09-09T18:38:05;16.40;99.90
56869;DHT22;42754;0.000;0.000;2022-09-09T18:40:31;16.30;99.90
56869;DHT22;42754;0.000;0.000;2022-09-09T18:42:57;16.30;99.90
56869;DHT22;42754;0.000;0.000;2022-09-09T18:45:23;16.30;99.90
56869;DHT22;42754;0.000;0.000;2022-09-09T18:47:57;16.30;99.90
56869;DHT22;42754;0.000;0.000;2022-09-09T18:50:23;16.30;99.90
56869;DHT22;42754;0.000;0.000;2022-09-09T18:52:48;16.30;99.90
56869;DHT22;42754;0.000;0.000;2022-09-09T18:55:14;16.20;99.90
56869;DHT22;42754;0.000;0.000;2022-09-09T18:57:40;16.20;99.90
56869;DHT22;42754;0.000;0.000;2022-09-09T19:00:06;16.20;99.90
56869;DHT22;42754;0.000;0.000;2022-09-09T19:02:34;16.10;99.90
56869;DHT22;42754;0.000;0.000;2022-09-09T19:05:00;16.10;99.90
56869;DHT22;42754;0.000;0.000;2022-09-09T19:07:28;16.10;99.90